sensor_id;sensor_type;location;lat;lon;timestamp;temperature;humidity
19868;DHT22;10096;51.112;6.776;2023-08-30T00:01:04;15.90;70.50
19868;DHT22;10096;51.112;6.776;2023-08-30T00:03:32;15.90;99.90
19868;DHT22;10096;51.112;6.776;2023-08-30T00:06:02;16.00;99.90
19868;DHT22;10096;51.112;6.776;2023-08-30T00:08:30;16.10;99.90
19868;DHT22;10096;51.112;6.776;2023-08-30T00:10:58;16.20;99.90
19868;DHT22;10096;51.112;6.776;2023-08-30T00:13:29;16.30;74.50
19868;DHT22;10096;51.112;6.776;2023-08-30T00:15:57;16.20;18.00
19868;DHT22;10096;51.112;6.776;2023-08-30T00:18:24;16.20;59.70
19868;DHT22;10096;51.112;6.776;2023-08-30T00:20:51;16.20;12.50
19868;DHT22;10096;51.112;6.776;2023-08-30T00:23:18;16.20;9.50
19868;DHT22;10096;51.112;6.776;2023-08-30T00:25:45;16.20;1.00
19868;DHT22;10096;51.112;6.776;2023-08-30T00:28:14;16.00;1.00
19868;DHT22;10096;51.112;6.776;2023-08-30T00:30:40;16.00;12.30
19868;DHT22;10096;51.112;6.776;2023-08-30T00:33:07;16.10;57.40
19868;DHT22;10096;51.112;6.776;2023-08-30T00:35:34;16.20;42.80
19868;DHT22;10096;51.112;6.776;2023-08-30T00:38:01;16.20;1.00
19868;DHT22;10096;51.112;6.776;2023-08-30T00:40:28;16.20;1.00
19868;DHT22;10096;51.112;6.776;2023-08-30T00:42:56;16.30;1.00
19868;DHT22;10096;51.112;6.776;2023-08-30T00:45:24;16.40;1.00
19868;DHT22;10096;51.112;6.776;2023-08-30T00:47:52;16.30;1.00
19868;DHT22;10096;51.112;6.776;2023-08-30T00:50:20;16.30;1.00
19868;DHT22;10096;51.112;6.776;2023-08-30T00:52:48;16.30;1.00
19868;DHT22;10096;51.112;6.776;2023-08-30T00:55:16;16.30;1.00
19868;DHT22;10096;51.112;6.776;2023-08-30T00:57:43;16.30;1.00
19868;DHT22;10096;51.112;6.776;2023-08-30T01:00:11;16.30;1.00
19868;DHT22;10096;51.112;6.776;2023-08-30T01:02:39;16.30;1.00
19868;DHT22;10096;51.112;6.776;2023-08-30T01:05:06;16.30;1.00
19868;DHT22;10096;51.112;6.776;2023-08-30T01:07:35;16.30;1.00
19868;DHT22;10096;51.112;6.776;2023-08-30T01:10:02;16.40;1.00
19868;DHT22;10096;51.112;6.776;2023-08-30T01:12:36;16.30;1.00
19868;DHT22;10096;51.112;6.776;2023-08-30T01:15:08;16.30;1.00
19868;DHT22;10096;51.112;6.776;2023-08-30T01:17:39;16.20;1.00
19868;DHT22;10096;51.112;6.776;2023-08-30T01:20:07;16.20;1.00
19868;DHT22;10096;51.112;6.776;2023-08-30T01:22:45;16.10;1.00
19868;DHT22;10096;51.112;6.776;2023-08-30T01:25:31;16.00;1.00
19868;DHT22;10096;51.112;6.776;2023-08-30T01:28:01;16.00;1.00
19868;DHT22;10096;51.112;6.776;2023-08-30T01:30:31;15.70;1.00
19868;DHT22;10096;51.112;6.776;2023-08-30T01:32:59;15.60;11.30
19868;DHT22;10096;51.112;6.776;2023-08-30T01:35:28;15.50;85.50
19868;DHT22;10096;51.112;6.776;2023-08-30T01:37:58;15.50;97.70
19868;DHT22;10096;51.112;6.776;2023-08-30T01:40:27;15.40;99.90
19868;DHT22;10096;51.112;6.776;2023-08-30T01:42:55;15.30;99.90
19868;DHT22;10096;51.112;6.776;2023-08-30T01:45:25;15.20;99.90
19868;DHT22;10096;51.112;6.776;2023-08-30T01:47:53;15.20;99.90
19868;DHT22;10096;51.112;6.776;2023-08-30T01:50:21;15.20;99.90
19868;DHT22;10096;51.112;6.776;2023-08-30T01:52:48;15.20;99.90
19868;DHT22;10096;51.112;6.776;2023-08-30T01:55:18;15.20;99.90
19868;DHT22;10096;51.112;6.776;2023-08-30T01:57:46;15.20;99.90
19868;DHT22;10096;51.112;6.776;2023-08-30T02:00:14;15.30;99.90
19868;DHT22;10096;51.112;6.776;2023-08-30T02:02:42;15.30;99.90
19868;DHT22;10096;51.112;6.776;2023-08-30T02:05:09;15.30;78.20
19868;DHT22;10096;51.112;6.776;2023-08-30T02:07:45;15.30;53.80
19868;DHT22;10096;51.112;6.776;2023-08-30T02:10:17;15.50;56.40
19868;DHT22;10096;51.112;6.776;2023-08-30T02:12:49;15.40;36.30
19868;DHT22;10096;51.112;6.776;2023-08-30T02:15:17;15.20;95.10
19868;DHT22;10096;51.112;6.776;2023-08-30T02:17:46;15.20;98.50
19868;DHT22;10096;51.112;6.776;2023-08-30T02:20:14;15.20;99.90
19868;DHT22;10096;51.112;6.776;2023-08-30T02:22:41;15.10;99.90
19868;DHT22;10096;51.112;6.776;2023-08-30T02:25:09;15.00;99.90
19868;DHT22;10096;51.112;6.776;2023-08-30T02:27:36;15.00;99.90
19868;DHT22;10096;51.112;6.776;2023-08-30T02:30:03;14.80;99.90
19868;DHT22;10096;51.112;6.776;2023-08-30T02:32:31;14.70;99.90
19868;DHT22;10096;51.112;6.776;2023-08-30T02:34:59;14.60;99.90
19868;DHT22;10096;51.112;6.776;2023-08-30T02:37:26;14.50;99.90
19868;DHT22;10096;51.112;6.776;2023-08-30T02:39:53;14.40;99.90
19868;DHT22;10096;51.112;6.776;2023-08-30T02:42:19;14.40;99.90
19868;DHT22;10096;51.112;6.776;2023-08-30T02:44:46;14.50;99.90
19868;DHT22;10096;51.112;6.776;2023-08-30T02:47:13;14.50;99.90
19868;DHT22;10096;51.112;6.776;2023-08-30T02:49:40;14.60;99.90
19868;DHT22;10096;51.112;6.776;2023-08-30T02:52:08;14.60;99.90
19868;DHT22;10096;51.112;6.776;2023-08-30T02:54:35;14.80;99.90
19868;DHT22;10096;51.112;6.776;2023-08-30T02:57:02;14.60;99.90
19868;DHT22;10096;51.112;6.776;2023-08-30T02:59:29;14.70;99.90
19868;DHT22;10096;51.112;6.776;2023-08-30T03:01:56;14.60;99.90
19868;DHT22;10096;51.112;6.776;2023-08-30T03:04:23;14.60;99.90
19868;DHT22;10096;51.112;6.776;2023-08-30T03:06:50;14.60;99.90
19868;DHT22;10096;51.112;6.776;2023-08-30T03:09:18;14.60;99.90
19868;DHT22;10096;51.112;6.776;2023-08-30T03:11:46;14.70;99.90
19868;DHT22;10096;51.112;6.776;2023-08-30T03:14:13;14.60;99.90
19868;DHT22;10096;51.112;6.776;2023-08-30T03:16:41;14.60;99.90
19868;DHT22;10096;51.112;6.776;2023-08-30T03:19:10;14.60;99.90
19868;DHT22;10096;51.112;6.776;2023-08-30T03:21:37;14.60;99.90
19868;DHT22;10096;51.112;6.776;2023-08-30T03:24:05;14.60;99.90
19868;DHT22;10096;51.112;6.776;2023-08-30T03:26:33;14.60;99.90
19868;DHT22;10096;51.112;6.776;2023-08-30T03:29:00;14.60;99.90
19868;DHT22;10096;51.112;6.776;2023-08-30T03:31:27;14.60;99.90
19868;DHT22;10096;51.112;6.776;2023-08-30T03:33:54;14.50;99.90
19868;DHT22;10096;51.112;6.776;2023-08-30T03:36:21;14.50;99.90
19868;DHT22;10096;51.112;6.776;2023-08-30T03:38:48;14.50;99.90
19868;DHT22;10096;51.112;6.776;2023-08-30T03:41:15;14.50;99.90
19868;DHT22;10096;51.112;6.776;2023-08-30T03:43:43;14.40;99.90
19868;DHT22;10096;51.112;6.776;2023-08-30T03:46:10;14.40;99.90
19868;DHT22;10096;51.112;6.776;2023-08-30T03:48:37;14.40;99.90
19868;DHT22;10096;51.112;6.776;2023-08-30T03:51:04;14.30;99.90
19868;DHT22;10096;51.112;6.776;2023-08-30T03:53:31;14.30;99.90
19868;DHT22;10096;51.112;6.776;2023-08-30T03:55:58;14.30;99.90
19868;DHT22;10096;51.112;6.776;2023-08-30T03:58:26;14.20;99.90
19868;DHT22;10096;51.112;6.776;2023-08-30T04:00:54;14.30;99.90
19868;DHT22;10096;51.112;6.776;2023-08-30T04:03:21;14.20;99.90
19868;DHT22;10096;51.112;6.776;2023-08-30T04:05:54;14.20;1.00
19868;DHT22;10096;51.112;6.776;2023-08-30T04:08:22;14.40;1.00
19868;DHT22;10096;51.112;6.776;2023-08-30T04:10:52;14.50;1.00
19868;DHT22;10096;51.112;6.776;2023-08-30T04:13:19;14.60;99.90
19868;DHT22;10096;51.112;6.776;2023-08-30T04:15:46;14.80;99.90
19868;DHT22;10096;51.112;6.776;2023-08-30T04:18:14;14.70;99.90
19868;DHT22;10096;51.112;6.776;2023-08-30T04:20:43;14.90;99.90
19868;DHT22;10096;51.112;6.776;2023-08-30T04:23:11;15.20;99.90
19868;DHT22;10096;51.112;6.776;2023-08-30T04:25:38;15.30;99.90
19868;DHT22;10096;51.112;6.776;2023-08-30T04:28:05;15.10;99.90
19868;DHT22;10096;51.112;6.776;2023-08-30T04:30:32;15.10;99.90
19868;DHT22;10096;51.112;6.776;2023-08-30T04:32:59;15.20;99.90
19868;DHT22;10096;51.112;6.776;2023-08-30T04:35:29;15.10;99.90
19868;DHT22;10096;51.112;6.776;2023-08-30T04:37:57;15.30;99.90
19868;DHT22;10096;51.112;6.776;2023-08-30T04:40:24;15.50;99.90
19868;DHT22;10096;51.112;6.776;2023-08-30T04:42:52;15.30;91.60
19868;DHT22;10096;51.112;6.776;2023-08-30T04:45:19;15.20;99.90
19868;DHT22;10096;51.112;6.776;2023-08-30T04:47:45;15.10;76.50
19868;DHT22;10096;51.112;6.776;2023-08-30T04:50:13;15.00;99.90
19868;DHT22;10096;51.112;6.776;2023-08-30T04:52:41;15.00;99.90
19868;DHT22;10096;51.112;6.776;2023-08-30T04:55:09;15.00;99.90
19868;DHT22;10096;51.112;6.776;2023-08-30T04:57:36;15.10;99.90
19868;DHT22;10096;51.112;6.776;2023-08-30T05:00:04;15.10;99.90
19868;DHT22;10096;51.112;6.776;2023-08-30T05:02:32;15.10;99.90
19868;DHT22;10096;51.112;6.776;2023-08-30T05:04:59;15.30;99.90
19868;DHT22;10096;51.112;6.776;2023-08-30T05:07:26;15.20;99.90
19868;DHT22;10096;51.112;6.776;2023-08-30T05:09:54;15.20;99.90
19868;DHT22;10096;51.112;6.776;2023-08-30T05:12:21;15.30;99.90
19868;DHT22;10096;51.112;6.776;2023-08-30T05:14:48;15.20;99.90
19868;DHT22;10096;51.112;6.776;2023-08-30T05:17:15;15.30;99.90
19868;DHT22;10096;51.112;6.776;2023-08-30T05:19:42;15.30;99.90
19868;DHT22;10096;51.112;6.776;2023-08-30T05:22:09;15.40;99.90
19868;DHT22;10096;51.112;6.776;2023-08-30T05:24:35;15.40;75.50
19868;DHT22;10096;51.112;6.776;2023-08-30T05:27:05;15.50;32.50
19868;DHT22;10096;51.112;6.776;2023-08-30T05:29:32;15.50;23.80
19868;DHT22;10096;51.112;6.776;2023-08-30T05:31:59;15.60;9.60
19868;DHT22;10096;51.112;6.776;2023-08-30T05:34:26;15.70;1.00
19868;DHT22;10096;51.112;6.776;2023-08-30T05:36:54;15.80;1.00
19868;DHT22;10096;51.112;6.776;2023-08-30T05:39:21;15.80;1.00
19868;DHT22;10096;51.112;6.776;2023-08-30T05:41:48;16.20;1.00
19868;DHT22;10096;51.112;6.776;2023-08-30T05:44:16;16.30;1.00
19868;DHT22;10096;51.112;6.776;2023-08-30T05:46:43;16.20;1.00
19868;DHT22;10096;51.112;6.776;2023-08-30T05:49:11;16.30;1.00
19868;DHT22;10096;51.112;6.776;2023-08-30T05:51:38;16.20;1.00
19868;DHT22;10096;51.112;6.776;2023-08-30T05:54:05;16.20;1.00
19868;DHT22;10096;51.112;6.776;2023-08-30T05:56:32;16.20;1.00
19868;DHT22;10096;51.112;6.776;2023-08-30T05:58:59;16.70;1.00
19868;DHT22;10096;51.112;6.776;2023-08-30T06:01:28;16.80;1.00
19868;DHT22;10096;51.112;6.776;2023-08-30T06:03:55;16.90;1.00
19868;DHT22;10096;51.112;6.776;2023-08-30T06:06:22;16.70;1.00
19868;DHT22;10096;51.112;6.776;2023-08-30T06:08:49;16.50;1.00
19868;DHT22;10096;51.112;6.776;2023-08-30T06:11:16;16.40;1.00
19868;DHT22;10096;51.112;6.776;2023-08-30T06:13:45;16.10;1.00
19868;DHT22;10096;51.112;6.776;2023-08-30T06:16:12;16.00;1.00
19868;DHT22;10096;51.112;6.776;2023-08-30T06:18:43;16.20;1.00
19868;DHT22;10096;51.112;6.776;2023-08-30T06:21:10;16.20;1.00
19868;DHT22;10096;51.112;6.776;2023-08-30T06:23:38;16.00;1.00
19868;DHT22;10096;51.112;6.776;2023-08-30T06:26:05;16.50;1.00
19868;DHT22;10096;51.112;6.776;2023-08-30T06:28:31;16.70;1.00
19868;DHT22;10096;51.112;6.776;2023-08-30T06:30:58;17.00;1.00
19868;DHT22;10096;51.112;6.776;2023-08-30T06:33:25;17.10;1.00
19868;DHT22;10096;51.112;6.776;2023-08-30T06:35:54;17.30;1.00
19868;DHT22;10096;51.112;6.776;2023-08-30T06:38:21;17.30;1.00
19868;DHT22;10096;51.112;6.776;2023-08-30T06:40:48;17.10;1.00
19868;DHT22;10096;51.112;6.776;2023-08-30T06:43:16;17.70;1.00
19868;DHT22;10096;51.112;6.776;2023-08-30T06:45:45;18.20;1.00
19868;DHT22;10096;51.112;6.776;2023-08-30T06:48:12;18.00;99.90
19868;DHT22;10096;51.112;6.776;2023-08-30T06:50:50;17.90;1.00
19868;DHT22;10096;51.112;6.776;2023-08-30T06:53:21;18.00;1.00
19868;DHT22;10096;51.112;6.776;2023-08-30T06:55:56;17.90;1.00
19868;DHT22;10096;51.112;6.776;2023-08-30T06:58:24;18.00;99.90
19868;DHT22;10096;51.112;6.776;2023-08-30T07:00:51;19.00;99.90
19868;DHT22;10096;51.112;6.776;2023-08-30T07:03:18;20.00;99.90
19868;DHT22;10096;51.112;6.776;2023-08-30T07:05:45;20.90;99.90
19868;DHT22;10096;51.112;6.776;2023-08-30T07:08:15;21.20;99.90
19868;DHT22;10096;51.112;6.776;2023-08-30T07:10:44;21.40;99.90
19868;DHT22;10096;51.112;6.776;2023-08-30T07:13:10;21.10;99.90
19868;DHT22;10096;51.112;6.776;2023-08-30T07:15:41;21.10;99.90
19868;DHT22;10096;51.112;6.776;2023-08-30T07:18:09;22.00;99.90
19868;DHT22;10096;51.112;6.776;2023-08-30T07:20:38;22.60;99.90
19868;DHT22;10096;51.112;6.776;2023-08-30T07:23:05;22.90;99.90
19868;DHT22;10096;51.112;6.776;2023-08-30T07:25:32;23.20;99.90
19868;DHT22;10096;51.112;6.776;2023-08-30T07:28:04;23.00;99.90
19868;DHT22;10096;51.112;6.776;2023-08-30T07:31:01;22.50;99.90
19868;DHT22;10096;51.112;6.776;2023-08-30T07:33:30;21.30;99.90
19868;DHT22;10096;51.112;6.776;2023-08-30T07:35:57;20.90;99.90
19868;DHT22;10096;51.112;6.776;2023-08-30T07:38:24;20.60;99.90
19868;DHT22;10096;51.112;6.776;2023-08-30T07:40:54;20.60;99.90
19868;DHT22;10096;51.112;6.776;2023-08-30T07:43:22;20.60;99.90
19868;DHT22;10096;51.112;6.776;2023-08-30T07:45:49;20.20;99.90
19868;DHT22;10096;51.112;6.776;2023-08-30T07:48:16;19.90;99.90
19868;DHT22;10096;51.112;6.776;2023-08-30T07:50:43;20.10;99.90
19868;DHT22;10096;51.112;6.776;2023-08-30T07:53:10;20.10;99.90
19868;DHT22;10096;51.112;6.776;2023-08-30T07:55:38;20.40;99.90
19868;DHT22;10096;51.112;6.776;2023-08-30T07:58:05;20.90;99.90
19868;DHT22;10096;51.112;6.776;2023-08-30T08:00:36;20.90;99.90
19868;DHT22;10096;51.112;6.776;2023-08-30T08:03:03;21.40;99.90
19868;DHT22;10096;51.112;6.776;2023-08-30T08:05:30;22.00;99.90
19868;DHT22;10096;51.112;6.776;2023-08-30T08:08:00;22.10;99.90
19868;DHT22;10096;51.112;6.776;2023-08-30T08:10:31;22.10;99.90
19868;DHT22;10096;51.112;6.776;2023-08-30T08:13:00;22.00;99.90
19868;DHT22;10096;51.112;6.776;2023-08-30T08:15:30;21.90;99.90
19868;DHT22;10096;51.112;6.776;2023-08-30T08:17:59;21.70;99.90
19868;DHT22;10096;51.112;6.776;2023-08-30T08:20:29;21.70;99.90
19868;DHT22;10096;51.112;6.776;2023-08-30T08:22:56;21.50;99.90
19868;DHT22;10096;51.112;6.776;2023-08-30T08:25:23;21.80;99.90
19868;DHT22;10096;51.112;6.776;2023-08-30T08:27:50;21.70;99.90
19868;DHT22;10096;51.112;6.776;2023-08-30T08:30:17;21.60;99.90
19868;DHT22;10096;51.112;6.776;2023-08-30T08:32:46;21.50;99.90
19868;DHT22;10096;51.112;6.776;2023-08-30T08:35:16;21.60;99.90
19868;DHT22;10096;51.112;6.776;2023-08-30T08:37:43;21.40;99.90
19868;DHT22;10096;51.112;6.776;2023-08-30T08:40:10;21.60;99.90
19868;DHT22;10096;51.112;6.776;2023-08-30T08:42:37;22.10;99.90
19868;DHT22;10096;51.112;6.776;2023-08-30T08:45:05;22.70;99.90
19868;DHT22;10096;51.112;6.776;2023-08-30T08:47:33;23.10;99.90
19868;DHT22;10096;51.112;6.776;2023-08-30T08:50:00;23.50;99.90
19868;DHT22;10096;51.112;6.776;2023-08-30T08:52:30;23.30;99.90
19868;DHT22;10096;51.112;6.776;2023-08-30T08:54:58;22.90;99.90
19868;DHT22;10096;51.112;6.776;2023-08-30T08:57:26;22.70;99.90
19868;DHT22;10096;51.112;6.776;2023-08-30T08:59:55;22.30;99.90
19868;DHT22;10096;51.112;6.776;2023-08-30T09:02:23;22.40;99.90
19868;DHT22;10096;51.112;6.776;2023-08-30T09:04:52;22.30;99.90
19868;DHT22;10096;51.112;6.776;2023-08-30T09:07:19;22.10;99.90
19868;DHT22;10096;51.112;6.776;2023-08-30T09:09:48;22.00;99.90
19868;DHT22;10096;51.112;6.776;2023-08-30T09:12:16;22.10;99.90
19868;DHT22;10096;51.112;6.776;2023-08-30T09:14:53;22.00;99.90
19868;DHT22;10096;51.112;6.776;2023-08-30T09:17:20;22.10;99.90
19868;DHT22;10096;51.112;6.776;2023-08-30T09:19:48;22.00;99.90
19868;DHT22;10096;51.112;6.776;2023-08-30T09:22:16;22.00;99.90
19868;DHT22;10096;51.112;6.776;2023-08-30T09:24:43;22.00;99.90
19868;DHT22;10096;51.112;6.776;2023-08-30T09:27:11;21.80;99.90
19868;DHT22;10096;51.112;6.776;2023-08-30T09:29:38;21.80;99.90
19868;DHT22;10096;51.112;6.776;2023-08-30T09:32:09;21.70;99.90
19868;DHT22;10096;51.112;6.776;2023-08-30T09:34:36;21.70;99.90
19868;DHT22;10096;51.112;6.776;2023-08-30T09:37:03;21.70;99.90
19868;DHT22;10096;51.112;6.776;2023-08-30T09:39:32;22.00;99.90
19868;DHT22;10096;51.112;6.776;2023-08-30T09:42:01;22.00;99.90
19868;DHT22;10096;51.112;6.776;2023-08-30T09:44:29;21.90;99.90
19868;DHT22;10096;51.112;6.776;2023-08-30T09:46:57;22.00;99.90
19868;DHT22;10096;51.112;6.776;2023-08-30T09:49:25;22.10;99.90
19868;DHT22;10096;51.112;6.776;2023-08-30T09:51:54;21.70;99.90
19868;DHT22;10096;51.112;6.776;2023-08-30T09:54:22;21.60;99.90
19868;DHT22;10096;51.112;6.776;2023-08-30T09:56:49;21.90;99.90
19868;DHT22;10096;51.112;6.776;2023-08-30T09:59:18;21.50;99.90
19868;DHT22;10096;51.112;6.776;2023-08-30T10:01:50;21.20;99.90
19868;DHT22;10096;51.112;6.776;2023-08-30T10:04:19;20.80;99.90
19868;DHT22;10096;51.112;6.776;2023-08-30T10:06:47;20.30;99.90
19868;DHT22;10096;51.112;6.776;2023-08-30T10:09:15;20.40;99.90
19868;DHT22;10096;51.112;6.776;2023-08-30T10:11:45;20.50;99.90
19868;DHT22;10096;51.112;6.776;2023-08-30T10:14:13;20.50;99.90
19868;DHT22;10096;51.112;6.776;2023-08-30T10:16:42;20.50;99.90
19868;DHT22;10096;51.112;6.776;2023-08-30T10:19:14;20.50;99.90
19868;DHT22;10096;51.112;6.776;2023-08-30T10:21:43;20.50;99.90
19868;DHT22;10096;51.112;6.776;2023-08-30T10:24:12;20.30;99.90
19868;DHT22;10096;51.112;6.776;2023-08-30T10:26:43;20.20;99.90
19868;DHT22;10096;51.112;6.776;2023-08-30T10:29:11;20.20;99.90
19868;DHT22;10096;51.112;6.776;2023-08-30T10:31:40;20.30;99.90
19868;DHT22;10096;51.112;6.776;2023-08-30T10:34:14;20.30;99.90
19868;DHT22;10096;51.112;6.776;2023-08-30T10:36:42;20.30;99.90
19868;DHT22;10096;51.112;6.776;2023-08-30T10:39:12;20.40;99.90
19868;DHT22;10096;51.112;6.776;2023-08-30T10:41:54;20.40;99.90
19868;DHT22;10096;51.112;6.776;2023-08-30T10:44:22;20.10;99.90
19868;DHT22;10096;51.112;6.776;2023-08-30T10:46:52;20.50;99.90
19868;DHT22;10096;51.112;6.776;2023-08-30T10:49:22;20.00;99.90
19868;DHT22;10096;51.112;6.776;2023-08-30T10:52:00;19.50;99.90
19868;DHT22;10096;51.112;6.776;2023-08-30T10:54:37;19.20;99.90
19868;DHT22;10096;51.112;6.776;2023-08-30T10:57:04;18.90;1.00
19868;DHT22;10096;51.112;6.776;2023-08-30T10:59:32;18.70;1.00
19868;DHT22;10096;51.112;6.776;2023-08-30T11:02:01;18.30;1.00
19868;DHT22;10096;51.112;6.776;2023-08-30T11:04:30;18.10;1.00
19868;DHT22;10096;51.112;6.776;2023-08-30T11:06:57;18.00;1.00
19868;DHT22;10096;51.112;6.776;2023-08-30T11:09:25;18.20;1.00
19868;DHT22;10096;51.112;6.776;2023-08-30T11:11:52;18.00;1.00
19868;DHT22;10096;51.112;6.776;2023-08-30T11:14:19;17.90;1.00
19868;DHT22;10096;51.112;6.776;2023-08-30T11:16:46;18.20;1.00
19868;DHT22;10096;51.112;6.776;2023-08-30T11:19:14;18.00;18.90
19868;DHT22;10096;51.112;6.776;2023-08-30T11:24:44;18.20;1.00
19868;DHT22;10096;51.112;6.776;2023-08-30T11:27:13;18.20;1.00
19868;DHT22;10096;51.112;6.776;2023-08-30T11:29:42;18.30;1.00
19868;DHT22;10096;51.112;6.776;2023-08-30T11:32:09;18.10;1.00
19868;DHT22;10096;51.112;6.776;2023-08-30T11:34:36;18.30;1.00
19868;DHT22;10096;51.112;6.776;2023-08-30T11:37:03;18.10;1.00
19868;DHT22;10096;51.112;6.776;2023-08-30T11:39:30;18.30;1.00
19868;DHT22;10096;51.112;6.776;2023-08-30T11:41:59;18.40;1.00
19868;DHT22;10096;51.112;6.776;2023-08-30T11:44:28;18.50;11.60
19868;DHT22;10096;51.112;6.776;2023-08-30T11:46:58;18.40;1.00
19868;DHT22;10096;51.112;6.776;2023-08-30T11:49:26;18.40;1.00
19868;DHT22;10096;51.112;6.776;2023-08-30T11:51:54;18.30;1.00
19868;DHT22;10096;51.112;6.776;2023-08-30T11:54:22;18.50;1.00
19868;DHT22;10096;51.112;6.776;2023-08-30T11:56:50;18.30;1.00
19868;DHT22;10096;51.112;6.776;2023-08-30T11:59:22;18.20;1.00
19868;DHT22;10096;51.112;6.776;2023-08-30T12:01:49;18.20;1.00
19868;DHT22;10096;51.112;6.776;2023-08-30T12:04:16;18.10;1.00
19868;DHT22;10096;51.112;6.776;2023-08-30T12:06:44;18.00;1.00
19868;DHT22;10096;51.112;6.776;2023-08-30T12:09:17;18.20;1.00
19868;DHT22;10096;51.112;6.776;2023-08-30T12:11:47;18.20;9.10
19868;DHT22;10096;51.112;6.776;2023-08-30T12:14:14;18.50;36.80
19868;DHT22;10096;51.112;6.776;2023-08-30T12:16:43;18.40;24.00
19868;DHT22;10096;51.112;6.776;2023-08-30T12:19:12;18.60;1.00
19868;DHT22;10096;51.112;6.776;2023-08-30T12:21:41;18.80;1.00
19868;DHT22;10096;51.112;6.776;2023-08-30T12:24:08;18.70;1.00
19868;DHT22;10096;51.112;6.776;2023-08-30T12:26:39;18.70;1.00
19868;DHT22;10096;51.112;6.776;2023-08-30T12:29:06;18.80;1.00
19868;DHT22;10096;51.112;6.776;2023-08-30T12:31:33;19.00;1.00
19868;DHT22;10096;51.112;6.776;2023-08-30T12:34:01;19.00;1.00
19868;DHT22;10096;51.112;6.776;2023-08-30T12:36:29;19.30;1.00
19868;DHT22;10096;51.112;6.776;2023-08-30T12:38:57;19.00;1.00
19868;DHT22;10096;51.112;6.776;2023-08-30T12:41:24;18.90;1.00
19868;DHT22;10096;51.112;6.776;2023-08-30T12:43:51;18.90;1.00
19868;DHT22;10096;51.112;6.776;2023-08-30T12:46:18;18.80;1.00
19868;DHT22;10096;51.112;6.776;2023-08-30T12:48:45;18.80;1.00
19868;DHT22;10096;51.112;6.776;2023-08-30T12:51:13;18.60;1.00
19868;DHT22;10096;51.112;6.776;2023-08-30T12:53:40;18.50;1.00
19868;DHT22;10096;51.112;6.776;2023-08-30T12:56:09;18.50;1.00
19868;DHT22;10096;51.112;6.776;2023-08-30T12:58:37;18.30;1.00
19868;DHT22;10096;51.112;6.776;2023-08-30T13:01:06;18.30;1.00
19868;DHT22;10096;51.112;6.776;2023-08-30T13:03:32;18.00;40.90
19868;DHT22;10096;51.112;6.776;2023-08-30T13:05:59;18.10;83.60
19868;DHT22;10096;51.112;6.776;2023-08-30T13:08:28;18.00;71.40
19868;DHT22;10096;51.112;6.776;2023-08-30T13:10:55;18.30;69.60
19868;DHT22;10096;51.112;6.776;2023-08-30T13:13:22;18.20;56.10
19868;DHT22;10096;51.112;6.776;2023-08-30T13:15:50;18.30;39.70
19868;DHT22;10096;51.112;6.776;2023-08-30T13:18:17;18.50;80.60
19868;DHT22;10096;51.112;6.776;2023-08-30T13:20:44;18.80;1.00
19868;DHT22;10096;51.112;6.776;2023-08-30T13:23:11;18.50;1.00
19868;DHT22;10096;51.112;6.776;2023-08-30T13:25:41;18.40;1.00
19868;DHT22;10096;51.112;6.776;2023-08-30T13:28:08;18.40;1.00
19868;DHT22;10096;51.112;6.776;2023-08-30T13:30:35;18.50;18.30
19868;DHT22;10096;51.112;6.776;2023-08-30T13:33:02;18.40;1.00
19868;DHT22;10096;51.112;6.776;2023-08-30T13:35:29;18.40;1.00
19868;DHT22;10096;51.112;6.776;2023-08-30T13:37:56;18.50;1.00
19868;DHT22;10096;51.112;6.776;2023-08-30T13:40:23;18.40;1.00
19868;DHT22;10096;51.112;6.776;2023-08-30T13:42:52;18.50;92.50
19868;DHT22;10096;51.112;6.776;2023-08-30T13:45:19;18.60;30.30
19868;DHT22;10096;51.112;6.776;2023-08-30T13:47:49;18.70;1.00
19868;DHT22;10096;51.112;6.776;2023-08-30T13:50:17;18.90;1.00
19868;DHT22;10096;51.112;6.776;2023-08-30T13:52:44;19.00;1.00
19868;DHT22;10096;51.112;6.776;2023-08-30T13:55:11;18.80;1.00
19868;DHT22;10096;51.112;6.776;2023-08-30T13:57:38;18.90;1.00
19868;DHT22;10096;51.112;6.776;2023-08-30T14:00:09;19.20;1.00
19868;DHT22;10096;51.112;6.776;2023-08-30T14:02:36;19.00;1.00
19868;DHT22;10096;51.112;6.776;2023-08-30T14:05:04;19.10;1.00
19868;DHT22;10096;51.112;6.776;2023-08-30T14:07:32;19.20;1.00
19868;DHT22;10096;51.112;6.776;2023-08-30T14:10:00;19.20;1.00
19868;DHT22;10096;51.112;6.776;2023-08-30T14:12:27;19.20;1.00
19868;DHT22;10096;51.112;6.776;2023-08-30T14:14:54;19.40;1.00
19868;DHT22;10096;51.112;6.776;2023-08-30T14:17:23;19.10;1.00
19868;DHT22;10096;51.112;6.776;2023-08-30T14:19:51;18.90;1.00
19868;DHT22;10096;51.112;6.776;2023-08-30T14:22:18;18.80;1.00
19868;DHT22;10096;51.112;6.776;2023-08-30T14:24:45;18.70;1.00
19868;DHT22;10096;51.112;6.776;2023-08-30T14:27:13;18.60;1.00
19868;DHT22;10096;51.112;6.776;2023-08-30T14:29:40;18.50;1.00
19868;DHT22;10096;51.112;6.776;2023-08-30T14:32:09;18.70;1.00
19868;DHT22;10096;51.112;6.776;2023-08-30T14:34:38;18.30;1.00
19868;DHT22;10096;51.112;6.776;2023-08-30T14:37:05;18.50;1.00
19868;DHT22;10096;51.112;6.776;2023-08-30T14:39:32;18.60;1.00
19868;DHT22;10096;51.112;6.776;2023-08-30T14:41:59;18.50;1.00
19868;DHT22;10096;51.112;6.776;2023-08-30T14:44:26;18.20;1.00
19868;DHT22;10096;51.112;6.776;2023-08-30T14:46:53;18.10;1.00
19868;DHT22;10096;51.112;6.776;2023-08-30T14:49:20;18.10;1.00
19868;DHT22;10096;51.112;6.776;2023-08-30T14:51:49;18.00;1.00
19868;DHT22;10096;51.112;6.776;2023-08-30T14:54:16;18.00;1.00
19868;DHT22;10096;51.112;6.776;2023-08-30T14:56:42;18.00;1.00
19868;DHT22;10096;51.112;6.776;2023-08-30T14:59:10;18.10;1.00
19868;DHT22;10096;51.112;6.776;2023-08-30T15:01:37;17.90;1.00
19868;DHT22;10096;51.112;6.776;2023-08-30T15:04:05;17.90;1.00
19868;DHT22;10096;51.112;6.776;2023-08-30T15:06:31;17.90;1.00
19868;DHT22;10096;51.112;6.776;2023-08-30T15:09:00;18.10;1.00
19868;DHT22;10096;51.112;6.776;2023-08-30T15:11:28;18.20;1.00
19868;DHT22;10096;51.112;6.776;2023-08-30T15:13:55;18.30;1.00
19868;DHT22;10096;51.112;6.776;2023-08-30T15:16:23;18.50;1.00
19868;DHT22;10096;51.112;6.776;2023-08-30T15:18:51;18.70;1.00
19868;DHT22;10096;51.112;6.776;2023-08-30T15:21:18;18.90;1.00
19868;DHT22;10096;51.112;6.776;2023-08-30T15:23:45;19.00;1.00
19868;DHT22;10096;51.112;6.776;2023-08-30T15:26:13;19.00;1.00
19868;DHT22;10096;51.112;6.776;2023-08-30T15:28:42;19.00;1.00
19868;DHT22;10096;51.112;6.776;2023-08-30T15:31:11;19.10;1.00
19868;DHT22;10096;51.112;6.776;2023-08-30T15:33:39;19.10;1.00
19868;DHT22;10096;51.112;6.776;2023-08-30T15:36:08;19.00;1.00
19868;DHT22;10096;51.112;6.776;2023-08-30T15:38:36;19.20;1.00
19868;DHT22;10096;51.112;6.776;2023-08-30T15:41:12;19.00;1.00
19868;DHT22;10096;51.112;6.776;2023-08-30T15:43:39;19.10;1.00
19868;DHT22;10096;51.112;6.776;2023-08-30T15:46:06;18.80;1.00